createdAt,value
2022-08-04T00:00:07.672Z,55.68
2022-08-04T00:03:11.606Z,55.97
2022-08-04T00:05:55.382Z,55.96
2022-08-04T00:08:45.659Z,55.99
2022-08-04T00:11:24.190Z,56.49
2022-08-04T00:14:03.559Z,56.60
2022-08-04T00:16:40.237Z,56.60
2022-08-04T00:19:18.167Z,56.46
2022-08-04T00:21:57.268Z,56.83
2022-08-04T00:24:31.212Z,56.80
2022-08-04T00:27:04.128Z,56.94
2022-08-04T00:29:36.812Z,57.09
2022-08-04T00:32:09.936Z,56.92
2022-08-04T00:34:42.558Z,57.10
2022-08-04T00:37:15.995Z,57.12
2022-08-04T00:39:50.364Z,57.29
2022-08-04T00:42:49.346Z,57.35
2022-08-04T00:46:17.124Z,57.26
2022-08-04T00:49:12.062Z,57.61
2022-08-04T00:52:32.787Z,57.64
2022-08-04T00:55:03.305Z,57.70
2022-08-04T00:58:52.097Z,57.63
2022-08-04T01:01:51.239Z,57.78
2022-08-04T01:04:42.391Z,57.88
2022-08-04T01:07:33.065Z,57.81
2022-08-04T01:10:17.358Z,57.86
2022-08-04T01:13:15.603Z,57.82
2022-08-04T01:16:00.529Z,57.69
2022-08-04T01:18:45.852Z,58.06
2022-08-04T01:21:48.468Z,57.74
2022-08-04T01:24:31.141Z,57.79
2022-08-04T01:27:08.164Z,57.80
2022-08-04T01:29:48.836Z,57.75
2022-08-04T01:32:29.461Z,57.71
2022-08-04T01:35:05.485Z,57.76
2022-08-04T01:37:51.077Z,57.58
2022-08-04T01:40:27.911Z,57.63
2022-08-04T01:43:00.296Z,57.77
2022-08-04T01:45:34.858Z,57.83
2022-08-04T01:48:08.580Z,57.88
2022-08-04T01:50:44.945Z,57.63
2022-08-04T01:53:18.259Z,57.84
2022-08-04T01:55:54.704Z,57.60
2022-08-04T01:58:31.075Z,57.60
2022-08-04T02:01:08.469Z,57.44
2022-08-04T02:04:18.536Z,57.48
2022-08-04T02:06:42.092Z,57.35
2022-08-04T02:09:24.192Z,57.13
2022-08-04T02:12:15.744Z,56.87
2022-08-04T02:14:57.624Z,56.91
2022-08-04T02:17:33.679Z,57.03
2022-08-04T02:20:13.747Z,57.06
2022-08-04T02:22:54.204Z,56.82
2022-08-04T02:25:29.052Z,56.83
2022-08-04T02:28:23.234Z,56.79
2022-08-04T02:31:04.934Z,56.69
2022-08-04T02:33:40.531Z,56.86
2022-08-04T02:36:18.188Z,56.75
2022-08-04T02:38:58.058Z,56.76
2022-08-04T02:41:32.163Z,56.67
2022-08-04T02:44:06.045Z,56.85
2022-08-04T02:46:40.161Z,56.56
2022-08-04T02:49:13.513Z,56.73
2022-08-04T02:51:46.985Z,56.64
2022-08-04T02:54:32.571Z,56.77
2022-08-04T02:57:09.987Z,56.70
2022-08-04T02:59:52.039Z,56.83
2022-08-04T03:02:30.479Z,56.82
2022-08-04T03:05:09.033Z,56.89
2022-08-04T03:08:06.988Z,56.98
2022-08-04T03:10:58.623Z,56.90
2022-08-04T03:14:09.569Z,57.18
2022-08-04T03:17:14.563Z,57.10
2022-08-04T03:20:25.314Z,57.08
2022-08-04T03:23:49.673Z,57.16
2022-08-04T03:26:55.588Z,57.30
2022-08-04T03:30:10.007Z,57.32
2022-08-04T03:33:16.965Z,57.32
2022-08-04T03:36:20.083Z,57.42
2022-08-04T03:39:27.812Z,57.39
2022-08-04T03:42:29.034Z,57.44
2022-08-04T03:45:34.278Z,57.46
2022-08-04T03:48:33.821Z,57.39
2022-08-04T03:51:37.429Z,57.38
2022-08-04T03:54:48.472Z,57.31
2022-08-04T03:57:47.337Z,57.37
2022-08-04T04:00:21.025Z,57.22
2022-08-04T04:03:28.194Z,57.25
2022-08-04T04:06:44.056Z,57.17
2022-08-04T04:09:57.792Z,57.08
2022-08-04T04:13:04.431Z,57.18
2022-08-04T04:16:16.943Z,57.03
2022-08-04T04:19:22.574Z,56.95
2022-08-04T04:22:19.137Z,56.85
2022-08-04T04:25:04.681Z,56.81
2022-08-04T04:27:52.877Z,56.75
2022-08-04T04:30:31.723Z,56.75
2022-08-04T04:33:18.416Z,56.69
2022-08-04T04:36:02.745Z,56.58
2022-08-04T04:38:52.325Z,56.47
2022-08-04T04:41:54.782Z,56.36
2022-08-04T04:44:50.050Z,56.22
2022-08-04T04:48:07.036Z,56.00
2022-08-04T04:50:37.600Z,55.96
2022-08-04T04:53:19.492Z,55.98
2022-08-04T04:55:57.921Z,55.83
2022-08-04T04:58:32.969Z,55.74
2022-08-04T05:01:41.469Z,55.78
2022-08-04T05:04:30.565Z,55.44
2022-08-04T05:07:24.099Z,55.33
2022-08-04T05:10:08.975Z,55.22
2022-08-04T05:14:37.971Z,54.76
2022-08-04T05:16:18.637Z,54.59
2022-08-04T05:19:00.028Z,54.03
2022-08-04T05:21:52.561Z,53.10
2022-08-04T05:24:26.271Z,51.82
2022-08-04T05:27:03.177Z,49.84
2022-08-04T05:29:41.014Z,48.15
2022-08-04T05:32:16.172Z,46.36
2022-08-04T05:34:55.167Z,44.93
2022-08-04T05:37:30.323Z,43.04
2022-08-04T05:40:06.472Z,42.04
2022-08-04T05:42:41.646Z,40.59
2022-08-04T05:45:14.973Z,39.81
2022-08-04T05:47:47.909Z,38.96
2022-08-04T05:50:21.729Z,38.06
2022-08-04T05:52:59.921Z,37.65
2022-08-04T05:55:57.541Z,36.06
2022-08-04T05:58:28.193Z,34.90
2022-08-04T06:01:02.264Z,34.64
2022-08-04T06:03:35.558Z,33.73
2022-08-04T06:06:09.540Z,33.83
2022-08-04T06:08:42.268Z,33.92
2022-08-04T06:11:15.738Z,33.87
2022-08-04T06:13:55.785Z,33.91
2022-08-04T06:16:32.868Z,34.44
2022-08-04T06:19:59.045Z,33.99
2022-08-04T06:22:07.486Z,32.99
2022-08-04T06:24:41.475Z,32.49
2022-08-04T06:27:14.494Z,31.46
2022-08-04T06:29:50.725Z,30.73
2022-08-04T06:32:35.690Z,30.10
2022-08-04T06:35:12.202Z,29.41
2022-08-04T06:37:45.711Z,29.03
2022-08-04T06:40:30.822Z,28.46
2022-08-04T06:43:07.314Z,27.61
2022-08-04T06:45:41.519Z,27.66
2022-08-04T06:48:17.742Z,26.82
2022-08-04T06:51:24.428Z,26.61
2022-08-04T06:53:47.051Z,26.24
2022-08-04T06:56:21.067Z,25.55
2022-08-04T06:58:54.870Z,26.02
2022-08-04T07:01:29.101Z,25.69
2022-08-04T07:04:02.122Z,25.69
2022-08-04T07:06:35.209Z,24.86
2022-08-04T07:09:09.581Z,24.26
2022-08-04T07:11:44.398Z,23.99
2022-08-04T07:14:19.044Z,23.93
2022-08-04T07:16:53.124Z,23.61
2022-08-04T07:19:25.749Z,23.47
2022-08-04T07:22:06.449Z,23.68
2022-08-04T07:24:55.830Z,23.71
2022-08-04T07:27:47.573Z,24.03
2022-08-04T07:30:24.903Z,22.68
2022-08-04T07:32:57.690Z,23.35
2022-08-04T07:36:05.027Z,23.55
2022-08-04T07:38:27.455Z,23.55
2022-08-04T07:41:03.963Z,23.93
2022-08-04T07:43:37.528Z,23.66
2022-08-04T07:46:12.093Z,23.95
2022-08-04T07:48:44.540Z,23.99
2022-08-04T07:51:17.310Z,23.36
2022-08-04T07:53:54.851Z,23.38
2022-08-04T07:56:29.299Z,22.78
2022-08-04T07:59:02.806Z,22.33
2022-08-04T08:01:36.101Z,23.08
2022-08-04T08:04:11.705Z,23.12
2022-08-04T08:06:43.612Z,22.29
2022-08-04T08:09:20.586Z,22.46
2022-08-04T08:12:38.442Z,22.97
2022-08-04T08:14:47.568Z,22.83
2022-08-04T08:17:20.315Z,22.27
2022-08-04T08:19:52.773Z,22.30
2022-08-04T08:22:25.220Z,23.05
2022-08-04T08:24:57.482Z,23.23
2022-08-04T08:27:30.001Z,23.24
2022-08-04T08:30:02.401Z,23.74
2022-08-04T08:32:35.585Z,24.02
2022-08-04T08:35:09.418Z,24.14
2022-08-04T08:37:49.628Z,23.77
2022-08-04T08:40:40.462Z,24.01
2022-08-04T08:44:04.443Z,23.81
2022-08-04T08:46:50.422Z,24.10
2022-08-04T08:50:04.985Z,24.09
2022-08-04T08:53:02.487Z,24.42
2022-08-04T08:55:44.456Z,23.73
2022-08-04T08:58:31.001Z,24.00
2022-08-04T09:01:24.040Z,24.30
2022-08-04T09:04:22.815Z,24.35
2022-08-04T09:07:14.025Z,24.18
2022-08-04T09:09:54.676Z,24.72
2022-08-04T09:12:34.701Z,25.40
2022-08-04T09:15:15.170Z,24.97
2022-08-04T09:17:53.318Z,24.80
2022-08-04T09:20:32.748Z,25.47
2022-08-04T09:23:14.772Z,25.55
2022-08-04T09:25:52.685Z,25.85
2022-08-04T09:28:52.159Z,25.95
2022-08-04T09:31:25.581Z,25.41
2022-08-04T09:34:05.959Z,25.89
2022-08-04T09:36:48.807Z,25.90
2022-08-04T09:39:30.667Z,24.91
2022-08-04T09:42:15.290Z,24.61
2022-08-04T09:45:05.810Z,25.15
2022-08-04T09:47:48.125Z,25.53
2022-08-04T09:50:31.721Z,25.79
2022-08-04T09:53:32.039Z,26.08
2022-08-04T09:56:16.014Z,26.14
2022-08-04T09:58:58.566Z,26.48
2022-08-04T10:01:32.728Z,25.79
2022-08-04T10:04:10.063Z,26.61
2022-08-04T10:07:00.105Z,26.14
2022-08-04T10:09:59.804Z,25.98
2022-08-04T10:12:40.112Z,26.01
2022-08-04T10:15:18.575Z,26.37
2022-08-04T10:18:11.021Z,25.92
2022-08-04T10:21:15.593Z,26.42
2022-08-04T10:24:10.976Z,26.60
2022-08-04T10:26:57.190Z,27.16
2022-08-04T10:29:32.076Z,27.12
2022-08-04T10:32:11.488Z,27.75
2022-08-04T10:34:56.024Z,26.19
2022-08-04T10:37:58.983Z,27.22
2022-08-04T10:40:37.977Z,27.47
2022-08-04T10:43:32.524Z,27.27
2022-08-04T10:46:09.907Z,26.98
2022-08-04T10:48:51.680Z,27.23
2022-08-04T10:51:29.349Z,27.88
2022-08-04T10:54:04.689Z,28.62
2022-08-04T10:56:43.037Z,28.81
2022-08-04T10:59:21.530Z,28.87
2022-08-04T11:02:02.761Z,28.59
2022-08-04T11:04:47.849Z,28.29
2022-08-04T11:07:21.138Z,27.90
2022-08-04T11:09:54.559Z,28.27
2022-08-04T11:12:29.346Z,28.36
2022-08-04T11:15:07.542Z,28.33
2022-08-04T11:17:43.149Z,28.99
2022-08-04T11:20:37.682Z,29.24
2022-08-04T11:23:13.015Z,28.69
2022-08-04T11:25:54.177Z,28.23
2022-08-04T11:28:38.916Z,28.89
2022-08-04T11:31:15.920Z,29.06
2022-08-04T11:33:53.636Z,29.28
2022-08-04T11:36:35.824Z,29.77
2022-08-04T11:39:12.779Z,29.61
2022-08-04T11:41:57.999Z,29.89
2022-08-04T11:44:36.270Z,30.27
2022-08-04T11:47:20.612Z,30.63
2022-08-04T11:50:02.792Z,30.93
2022-08-04T11:52:39.479Z,31.07
2022-08-04T11:55:12.520Z,31.31
2022-08-04T11:57:45.814Z,30.73
2022-08-04T12:00:29.729Z,30.50
2022-08-04T12:03:28.419Z,30.68
2022-08-04T12:06:15.444Z,30.66
2022-08-04T12:09:10.409Z,31.00
2022-08-04T12:11:52.995Z,31.56
2022-08-04T12:14:45.093Z,31.46
2022-08-04T12:17:23.816Z,31.84
2022-08-04T12:20:04.950Z,32.36
2022-08-04T12:22:56.745Z,31.54
2022-08-04T12:25:36.023Z,31.20
2022-08-04T12:28:12.991Z,30.91
2022-08-04T12:30:59.776Z,31.01
2022-08-04T12:34:04.190Z,31.63
2022-08-04T12:36:39.217Z,31.69
2022-08-04T12:39:18.125Z,31.77
2022-08-04T12:41:59.646Z,31.89
2022-08-04T12:44:39.344Z,32.08
2022-08-04T12:47:27.776Z,31.96
2022-08-04T12:50:05.559Z,31.87
2022-08-04T12:53:06.909Z,31.88
2022-08-04T12:55:39.974Z,31.69
2022-08-04T12:58:42.406Z,31.63
2022-08-04T13:02:07.411Z,31.33
2022-08-04T13:04:17.074Z,31.75
2022-08-04T13:06:58.231Z,31.95
2022-08-04T13:09:34.381Z,31.54
2022-08-04T13:12:14.308Z,31.90
2022-08-04T13:14:50.535Z,32.16
2022-08-04T13:17:27.988Z,31.86
2022-08-04T13:20:02.088Z,31.67
2022-08-04T13:22:35.653Z,31.58
2022-08-04T13:26:44.161Z,31.76
2022-08-04T13:28:17.441Z,31.74
2022-08-04T13:30:56.942Z,31.63
2022-08-04T13:33:35.367Z,31.69
2022-08-04T13:36:08.900Z,31.66
2022-08-04T13:38:52.834Z,31.41
2022-08-04T13:41:30.947Z,31.02
2022-08-04T13:44:18.534Z,31.12
2022-08-04T13:46:54.482Z,31.34
2022-08-04T13:49:42.736Z,31.86
2022-08-04T13:52:18.745Z,32.28
2022-08-04T13:54:53.558Z,31.82
2022-08-04T13:57:31.608Z,31.53
2022-08-04T14:00:07.779Z,31.87
2022-08-04T14:02:46.144Z,31.77
2022-08-04T14:05:27.858Z,32.20
2022-08-04T14:08:10.016Z,32.25
2022-08-04T14:10:42.534Z,31.91
2022-08-04T14:13:14.681Z,31.73
2022-08-04T14:16:01.408Z,31.96
2022-08-04T14:18:36.284Z,31.67
2022-08-04T14:21:11.893Z,31.45
2022-08-04T14:23:51.049Z,31.54
2022-08-04T14:26:32.769Z,31.92
2022-08-04T14:29:26.547Z,32.02
2022-08-04T14:32:14.144Z,32.00
2022-08-04T14:34:48.475Z,31.73
2022-08-04T14:37:23.210Z,31.42
2022-08-04T14:40:08.919Z,31.87
2022-08-04T14:42:55.856Z,31.85
2022-08-04T14:45:34.357Z,31.87
2022-08-04T14:48:11.126Z,31.99
2022-08-04T14:50:45.111Z,31.62
2022-08-04T14:53:20.038Z,31.74
2022-08-04T14:55:54.600Z,31.57
2022-08-04T14:58:35.157Z,31.41
2022-08-04T15:01:13.002Z,31.57
2022-08-04T15:03:50.487Z,31.81
2022-08-04T15:06:28.545Z,32.31
2022-08-04T15:09:02.484Z,32.21
2022-08-04T15:11:37.896Z,31.77
2022-08-04T15:14:09.636Z,32.08
2022-08-04T15:17:01.972Z,32.05
2022-08-04T15:19:34.122Z,31.91
2022-08-04T15:22:06.790Z,31.60
2022-08-04T15:24:39.397Z,31.82
2022-08-04T15:27:13.820Z,31.82
2022-08-04T15:29:59.251Z,31.96
2022-08-04T15:32:35.972Z,31.75
2022-08-04T15:35:13.852Z,31.74
2022-08-04T15:37:55.993Z,32.06
2022-08-04T15:40:33.407Z,31.79
2022-08-04T15:43:24.782Z,32.04
2022-08-04T15:46:37.241Z,32.99
2022-08-04T15:48:53.298Z,32.65
2022-08-04T15:51:34.360Z,32.40
2022-08-04T15:54:27.861Z,32.04
2022-08-04T15:57:05.048Z,32.11
2022-08-04T16:00:12.873Z,32.14
2022-08-04T16:02:47.319Z,32.19
2022-08-04T16:05:39.587Z,32.38
2022-08-04T16:08:21.055Z,32.41
2022-08-04T16:10:53.787Z,32.49
2022-08-04T16:13:27.044Z,32.48
2022-08-04T16:16:03.753Z,32.41
2022-08-04T16:18:46.252Z,32.55
2022-08-04T16:21:23.831Z,32.62
2022-08-04T16:24:13.904Z,32.50
2022-08-04T16:26:55.137Z,32.62
2022-08-04T16:29:30.307Z,32.81
2022-08-04T16:32:23.428Z,32.97
2022-08-04T16:35:04.316Z,32.95
2022-08-04T16:37:39.105Z,32.98
2022-08-04T16:40:36.562Z,33.00
2022-08-04T16:43:13.494Z,32.80
2022-08-04T16:45:55.324Z,32.79
2022-08-04T16:48:29.370Z,32.67
2022-08-04T16:51:06.779Z,32.68
2022-08-04T16:54:04.125Z,32.62
2022-08-04T16:56:35.845Z,32.71
2022-08-04T16:59:13.852Z,32.96
2022-08-04T17:01:51.996Z,32.72
2022-08-04T17:04:31.625Z,32.82
2022-08-04T17:07:06.315Z,32.68
2022-08-04T17:09:38.628Z,32.95
2022-08-04T17:12:11.727Z,32.80
2022-08-04T17:14:47.772Z,32.81
2022-08-04T17:17:25.607Z,33.06
2022-08-04T17:20:17.898Z,33.16
2022-08-04T17:22:50.046Z,33.07
2022-08-04T17:25:22.123Z,33.28
2022-08-04T17:28:28.501Z,33.07
2022-08-04T17:31:03.201Z,33.49
2022-08-04T17:33:54.695Z,33.51
2022-08-04T17:36:30.156Z,33.74
2022-08-04T17:39:17.058Z,33.72
2022-08-04T17:41:50.065Z,33.78
2022-08-04T17:44:22.351Z,34.07
2022-08-04T17:46:54.786Z,34.17
2022-08-04T17:49:28.685Z,33.87
2022-08-04T17:52:05.862Z,34.10
2022-08-04T17:54:41.141Z,34.36
2022-08-04T17:57:21.661Z,34.42
2022-08-04T18:00:00.037Z,34.62
2022-08-04T18:02:35.102Z,34.56
2022-08-04T18:05:11.695Z,34.56
2022-08-04T18:08:38.513Z,34.52
2022-08-04T18:10:55.439Z,34.44
2022-08-04T18:13:29.295Z,34.51
2022-08-04T18:16:05.887Z,34.39
2022-08-04T18:18:48.993Z,34.21
2022-08-04T18:21:22.911Z,34.40
2022-08-04T18:23:55.277Z,34.15
2022-08-04T18:26:33.096Z,34.50
2022-08-04T18:29:05.810Z,34.40
2022-08-04T18:31:39.497Z,34.52
2022-08-04T18:34:14.352Z,34.31
2022-08-04T18:36:57.279Z,34.32
2022-08-04T18:40:17.300Z,34.63
2022-08-04T18:42:23.713Z,34.45
2022-08-04T18:44:58.376Z,34.28
2022-08-04T18:47:32.796Z,34.61
2022-08-04T18:53:17.040Z,34.68
2022-08-04T18:55:58.034Z,34.78
2022-08-04T18:58:30.613Z,34.91
2022-08-04T19:01:02.680Z,34.89
2022-08-04T19:03:49.404Z,35.00
2022-08-04T19:06:27.502Z,35.24
2022-08-04T19:08:59.768Z,35.27
2022-08-04T19:11:38.307Z,35.37
2022-08-04T19:14:25.710Z,35.45
2022-08-04T19:16:58.385Z,35.40
2022-08-04T19:19:47.383Z,35.42
2022-08-04T19:22:35.629Z,35.57
2022-08-04T19:25:10.077Z,35.48
2022-08-04T19:27:42.285Z,35.72
2022-08-04T19:30:15.271Z,35.92
2022-08-04T19:32:49.746Z,35.99
2022-08-04T19:35:22.274Z,36.06
2022-08-04T19:37:57.922Z,36.28
2022-08-04T19:40:34.188Z,36.43
2022-08-04T19:43:14.474Z,36.32
2022-08-04T19:45:47.885Z,36.50
2022-08-04T19:48:20.381Z,36.40
2022-08-04T19:50:52.888Z,36.61
2022-08-04T19:53:36.944Z,36.57
2022-08-04T19:56:10.490Z,36.74
2022-08-04T19:58:48.192Z,36.91
2022-08-04T20:01:33.448Z,36.97
2022-08-04T20:04:13.256Z,36.98
2022-08-04T20:06:45.935Z,37.07
2022-08-04T20:09:25.406Z,37.17
2022-08-04T20:11:59.900Z,37.12
2022-08-04T20:14:33.455Z,37.22
2022-08-04T20:17:10.339Z,37.27
2022-08-04T20:19:51.331Z,37.27
2022-08-04T20:22:51.770Z,37.38
2022-08-04T20:25:27.237Z,37.33
2022-08-04T20:28:09.424Z,37.64
2022-08-04T20:30:58.021Z,37.66
2022-08-04T20:33:30.251Z,37.69
2022-08-04T20:36:05.237Z,37.82
2022-08-04T20:38:38.994Z,37.88
2022-08-04T20:41:11.256Z,38.18
2022-08-04T20:43:46.619Z,38.32
2022-08-04T20:46:29.330Z,38.53
2022-08-04T20:49:02.029Z,38.75
2022-08-04T20:51:40.193Z,38.92
2022-08-04T20:54:16.498Z,39.07
2022-08-04T20:56:55.531Z,39.37
2022-08-04T20:59:29.170Z,39.60
2022-08-04T21:02:01.399Z,39.73
2022-08-04T21:04:48.522Z,39.99
2022-08-04T21:07:22.195Z,40.16
2022-08-04T21:09:55.071Z,40.16
2022-08-04T21:12:29.109Z,40.53
2022-08-04T21:15:13.957Z,40.63
2022-08-04T21:17:59.455Z,40.86
2022-08-04T21:23:28.897Z,41.21
2022-08-04T21:26:06.779Z,41.40
2022-08-04T21:28:43.319Z,41.58
2022-08-04T21:31:22.146Z,41.80
2022-08-04T21:33:54.559Z,41.96
2022-08-04T21:36:27.411Z,42.21
2022-08-04T21:39:00.070Z,42.32
2022-08-04T21:41:32.329Z,42.55
2022-08-04T21:44:04.808Z,42.66
2022-08-04T21:46:44.572Z,42.83
2022-08-04T21:49:16.875Z,42.96
2022-08-04T21:51:59.646Z,43.18
2022-08-04T21:54:33.570Z,43.31
2022-08-04T21:57:06.228Z,43.44
2022-08-04T21:59:45.147Z,43.62
2022-08-04T22:02:18.523Z,43.82
2022-08-04T22:04:52.783Z,44.02
2022-08-04T22:07:25.181Z,44.12
2022-08-04T22:10:18.657Z,44.27
2022-08-04T22:13:07.326Z,44.45
2022-08-04T22:16:03.917Z,44.53
2022-08-04T22:18:31.994Z,44.70
2022-08-04T22:24:00.577Z,44.82
2022-08-04T22:26:34.636Z,45.04
2022-08-04T22:29:07.040Z,45.15
2022-08-04T22:31:55.680Z,45.21
2022-08-04T22:34:30.482Z,45.35
2022-08-04T22:37:12.320Z,45.46
2022-08-04T22:39:56.954Z,45.62
2022-08-04T22:42:29.238Z,45.71
2022-08-04T22:45:03.773Z,45.78
2022-08-04T22:47:40.193Z,45.93
2022-08-04T22:50:27.557Z,45.84
2022-08-04T22:52:59.954Z,46.03
2022-08-04T22:56:06.739Z,46.29
2022-08-04T22:58:28.634Z,46.52
2022-08-04T23:01:01.195Z,46.68
2022-08-04T23:03:38.541Z,46.69
2022-08-04T23:06:12.865Z,46.71
2022-08-04T23:08:48.392Z,46.92
2022-08-04T23:11:21.086Z,46.97
2022-08-04T23:13:53.120Z,47.16
2022-08-04T23:16:25.322Z,47.32
2022-08-04T23:19:00.342Z,47.44
2022-08-04T23:21:47.313Z,47.48
2022-08-04T23:24:20.390Z,47.74
2022-08-04T23:26:52.664Z,47.91
2022-08-04T23:29:24.902Z,48.00
2022-08-04T23:32:00.464Z,48.10
2022-08-04T23:34:32.840Z,48.34
2022-08-04T23:37:04.908Z,48.47
2022-08-04T23:40:03.798Z,48.46
2022-08-04T23:42:29.064Z,48.61
2022-08-04T23:45:01.357Z,48.77
2022-08-04T23:48:16.240Z,48.88
2022-08-04T23:50:25.663Z,48.97
2022-08-04T23:52:58.370Z,49.10
2022-08-04T23:55:32.217Z,49.23
2022-08-04T23:58:19.114Z,49.33
